Terminal Aerodrome Forecast
Issued by NWS

Home | Current Version | Previous Version | Text Only | Print | Product List | Glossary On
Versions: 1 2 3 4 5 6 7 8 9 10 11 12 13 14 15 16 17 18 19 20 21 22 23 24
548
FTUS46 KSEW 180525
TAFSEA
TAF
KSEA 180525Z 1806/1912 13008KT 4SM -RA BR SCT007 OVC030
      TEMPO 1806/1808 2SM RA BR BKN007 OVC025
     FM181800 18014G22KT P6SM -SHRA BKN030 OVC050
     FM190300 16010KT P6SM -SHRA BKN015 OVC030
     FM190600 16006KT P6SM BKN006 OVC015=

USA.gov is the U.S. government's official web portal to all federal, state and local government web resources and services.